createdAt,value
2023-02-23T00:01:23.175Z,7.50
2023-02-23T00:03:52.582Z,7.60
2023-02-23T00:06:20.978Z,7.70
2023-02-23T00:08:52.380Z,7.70
2023-02-23T00:11:22.385Z,7.80
2023-02-23T00:13:53.747Z,7.80
2023-02-23T00:16:23.912Z,7.90
2023-02-23T00:18:54.132Z,7.90
2023-02-23T00:21:24.509Z,7.90
2023-02-23T00:23:57.303Z,7.90
2023-02-23T00:26:30.469Z,7.90
2023-02-23T00:29:00.692Z,8.00
2023-02-23T00:31:30.214Z,8.00
2023-02-23T00:34:00.245Z,8.00
2023-02-23T00:36:31.202Z,8.00
2023-02-23T00:39:06.115Z,8.00
2023-02-23T00:41:34.477Z,8.00
2023-02-23T00:44:03.076Z,8.10
2023-02-23T00:46:32.156Z,8.10
2023-02-23T00:49:00.945Z,8.20
2023-02-23T00:51:31.079Z,8.20
2023-02-23T00:54:02.179Z,8.20
2023-02-23T00:56:30.969Z,8.20
2023-02-23T00:58:59.829Z,8.20
2023-02-23T01:01:28.652Z,8.20
2023-02-23T01:03:57.456Z,8.20
2023-02-23T01:06:26.342Z,8.30
2023-02-23T01:08:57.629Z,8.20
2023-02-23T01:11:31.061Z,8.20
2023-02-23T01:14:00.779Z,8.20
2023-02-23T01:16:31.983Z,8.20
2023-02-23T01:19:02.314Z,8.20
2023-02-23T01:21:32.748Z,8.20
2023-02-23T01:24:02.400Z,8.20
2023-02-23T01:26:35.166Z,8.20
2023-02-23T01:29:08.882Z,8.20
2023-02-23T01:31:38.978Z,8.20
2023-02-23T01:34:08.264Z,8.30
2023-02-23T01:36:39.925Z,8.30
2023-02-23T01:39:12.072Z,8.30
2023-02-23T01:41:43.443Z,8.30
2023-02-23T01:44:45.011Z,8.30
2023-02-23T01:47:17.258Z,8.30
2023-02-23T01:49:45.813Z,8.30
2023-02-23T01:52:17.566Z,8.30
2023-02-23T01:54:51.665Z,8.20
2023-02-23T01:57:25.267Z,8.20
2023-02-23T01:59:53.809Z,8.20
2023-02-23T02:02:32.796Z,8.20
2023-02-23T02:05:02.808Z,8.20
2023-02-23T02:07:35.267Z,8.30
2023-02-23T02:10:39.757Z,8.30
2023-02-23T02:13:14.477Z,8.30
2023-02-23T02:16:13.588Z,8.30
2023-02-23T02:18:58.841Z,8.30
2023-02-23T02:22:00.954Z,8.40
2023-02-23T02:25:01.584Z,8.40
2023-02-23T02:27:58.636Z,8.40
2023-02-23T02:30:49.658Z,8.40
2023-02-23T02:33:58.576Z,8.40
2023-02-23T02:37:00.228Z,8.40
2023-02-23T02:39:36.720Z,8.40
2023-02-23T02:42:18.090Z,8.40
2023-02-23T02:44:56.078Z,8.40
2023-02-23T02:47:29.642Z,8.40
2023-02-23T02:50:06.729Z,8.40
2023-02-23T02:52:40.271Z,8.40
2023-02-23T02:55:16.579Z,8.40
2023-02-23T02:57:47.380Z,8.40
2023-02-23T03:00:38.188Z,8.40
2023-02-23T03:03:23.838Z,8.40
2023-02-23T03:06:12.974Z,8.40
2023-02-23T03:09:06.531Z,8.40
2023-02-23T03:11:58.391Z,8.40
2023-02-23T03:14:51.402Z,8.40
2023-02-23T03:17:42.988Z,8.40
2023-02-23T03:20:38.515Z,8.40
2023-02-23T03:23:31.820Z,8.40
2023-02-23T03:26:24.482Z,8.40
2023-02-23T03:29:18.666Z,8.40
2023-02-23T03:32:12.540Z,8.40
2023-02-23T03:35:04.854Z,8.40
2023-02-23T03:37:57.806Z,8.40
2023-02-23T03:40:46.603Z,8.40
2023-02-23T03:43:37.326Z,8.40
2023-02-23T03:46:30.167Z,8.40
2023-02-23T03:49:19.962Z,8.40
2023-02-23T03:52:12.141Z,8.40
2023-02-23T03:55:02.565Z,8.40
2023-02-23T03:57:50.002Z,8.40
2023-02-23T04:00:41.590Z,8.40
2023-02-23T04:03:31.295Z,8.40
2023-02-23T04:06:18.020Z,8.40
2023-02-23T04:09:05.792Z,8.40
2023-02-23T04:12:01.050Z,8.40
2023-02-23T04:14:35.022Z,8.40
2023-02-23T04:17:04.240Z,8.40
2023-02-23T04:19:34.161Z,8.40
2023-02-23T04:22:02.444Z,8.40
2023-02-23T04:24:30.983Z,8.40
2023-02-23T04:26:59.372Z,8.40
2023-02-23T04:29:27.884Z,8.40
2023-02-23T04:31:56.318Z,8.40
2023-02-23T04:34:24.915Z,8.40
2023-02-23T04:36:54.644Z,8.40
2023-02-23T04:39:23.090Z,8.40
2023-02-23T04:41:51.635Z,8.40
2023-02-23T04:44:20.087Z,8.40
2023-02-23T04:46:48.575Z,8.40
2023-02-23T04:49:16.928Z,8.30
2023-02-23T04:51:51.260Z,8.30
2023-02-23T04:54:21.155Z,8.30
2023-02-23T04:56:49.484Z,8.30
2023-02-23T04:59:17.868Z,8.30
2023-02-23T05:01:46.666Z,8.30
2023-02-23T05:04:15.178Z,8.20
2023-02-23T05:06:44.296Z,8.20
2023-02-23T05:09:12.788Z,8.20
2023-02-23T05:11:51.743Z,8.20
2023-02-23T05:14:20.136Z,8.20
2023-02-23T05:16:54.227Z,8.20
2023-02-23T05:19:25.976Z,8.20
2023-02-23T05:21:54.913Z,8.20
2023-02-23T05:24:24.184Z,8.20
2023-02-23T05:26:57.259Z,8.10
2023-02-23T05:29:26.418Z,8.10
2023-02-23T05:31:55.554Z,8.10
2023-02-23T05:34:24.347Z,8.10
2023-02-23T05:36:54.273Z,8.10
2023-02-23T05:39:22.814Z,8.10
2023-02-23T05:41:51.352Z,8.10
2023-02-23T05:44:21.160Z,8.00
2023-02-23T05:46:49.509Z,8.00
2023-02-23T05:49:18.267Z,8.00
2023-02-23T05:51:47.083Z,8.00
2023-02-23T05:54:15.824Z,8.00
2023-02-23T05:56:45.091Z,8.00
2023-02-23T05:59:13.632Z,8.00
2023-02-23T06:01:43.531Z,8.00
2023-02-23T06:04:11.932Z,8.00
2023-02-23T06:06:40.604Z,8.00
2023-02-23T06:09:09.119Z,8.00
2023-02-23T06:11:37.592Z,8.00
2023-02-23T06:14:05.998Z,8.00
2023-02-23T06:16:34.729Z,8.00
2023-02-23T06:19:04.683Z,8.00
2023-02-23T06:21:33.856Z,8.00
2023-02-23T06:24:02.588Z,8.00
2023-02-23T06:26:31.573Z,8.00
2023-02-23T06:28:59.984Z,8.00
2023-02-23T06:31:28.582Z,8.00
2023-02-23T06:33:57.018Z,8.00
2023-02-23T06:36:26.815Z,8.00
2023-02-23T06:38:57.986Z,8.00
2023-02-23T06:41:26.602Z,8.00
2023-02-23T06:43:55.302Z,8.00
2023-02-23T06:46:24.782Z,8.00
2023-02-23T06:48:57.080Z,8.00
2023-02-23T06:51:27.333Z,8.00
2023-02-23T06:53:55.623Z,8.00
2023-02-23T06:56:24.023Z,8.00
2023-02-23T06:58:52.822Z,8.00
2023-02-23T07:01:21.359Z,8.00
2023-02-23T07:03:49.776Z,8.00
2023-02-23T07:06:18.268Z,8.00
2023-02-23T07:08:48.131Z,8.00
2023-02-23T07:11:18.821Z,8.00
2023-02-23T07:13:47.432Z,8.00
2023-02-23T07:16:16.567Z,8.10
2023-02-23T07:18:45.073Z,8.10
2023-02-23T07:21:13.338Z,8.10
2023-02-23T07:23:41.690Z,8.10
2023-02-23T07:26:15.485Z,8.10
2023-02-23T07:28:43.895Z,8.10
2023-02-23T07:31:12.405Z,8.20
2023-02-23T07:33:40.864Z,8.20
2023-02-23T07:36:10.398Z,8.20
2023-02-23T07:38:39.195Z,8.20
2023-02-23T07:41:07.861Z,8.20
2023-02-23T07:43:37.540Z,8.30
2023-02-23T07:46:06.110Z,8.30
2023-02-23T07:48:34.584Z,8.30
2023-02-23T07:51:03.033Z,8.30
2023-02-23T07:53:32.085Z,8.40
2023-02-23T07:56:01.334Z,8.40
2023-02-23T07:58:30.801Z,8.40
2023-02-23T08:01:00.550Z,8.40
2023-02-23T08:03:28.979Z,8.40
2023-02-23T08:05:57.596Z,8.50
2023-02-23T08:08:26.459Z,8.50
2023-02-23T08:11:01.871Z,8.50
2023-02-23T08:13:32.163Z,8.50
2023-02-23T08:16:02.016Z,8.50
2023-02-23T08:18:30.293Z,8.60
2023-02-23T08:21:02.666Z,8.60
2023-02-23T08:23:31.672Z,8.60
2023-02-23T08:26:01.477Z,8.60
2023-02-23T08:28:30.775Z,8.60
2023-02-23T08:30:59.645Z,8.60
2023-02-23T08:33:31.725Z,8.60
2023-02-23T08:36:02.868Z,8.60
2023-02-23T08:38:31.325Z,8.70
2023-02-23T08:41:01.730Z,8.70
2023-02-23T08:43:30.346Z,8.70
2023-02-23T08:45:58.864Z,8.70
2023-02-23T08:48:28.743Z,8.70
2023-02-23T08:51:00.684Z,8.70
2023-02-23T08:53:29.886Z,8.70
2023-02-23T08:55:59.410Z,8.70
2023-02-23T08:58:28.293Z,8.70
2023-02-23T09:00:56.898Z,8.70
2023-02-23T09:03:26.207Z,8.70
2023-02-23T09:05:56.468Z,8.70
2023-02-23T09:08:29.394Z,8.70
2023-02-23T09:10:57.712Z,8.80
2023-02-23T09:13:26.130Z,8.80
2023-02-23T09:15:55.366Z,8.80
2023-02-23T09:18:27.947Z,8.80
2023-02-23T09:20:58.167Z,8.90
2023-02-23T09:23:29.780Z,8.90
2023-02-23T09:25:58.313Z,8.90
2023-02-23T09:28:31.137Z,8.90
2023-02-23T09:30:59.618Z,9.00
2023-02-23T09:33:28.611Z,9.00
2023-02-23T09:35:58.316Z,9.00
2023-02-23T09:38:26.958Z,9.00
2023-02-23T09:40:57.074Z,9.10
2023-02-23T09:43:31.606Z,9.10
2023-02-23T09:46:13.468Z,9.10
2023-02-23T09:48:43.229Z,9.10
2023-02-23T09:51:19.030Z,8.90
2023-02-23T09:53:52.211Z,8.80
2023-02-23T09:56:26.154Z,8.70
2023-02-23T09:58:54.773Z,8.70
2023-02-23T10:01:53.470Z,8.70
2023-02-23T10:04:25.074Z,8.70
2023-02-23T10:07:01.847Z,8.70
2023-02-23T10:09:53.302Z,8.60
2023-02-23T10:12:27.370Z,8.60
2023-02-23T10:15:15.227Z,8.60
2023-02-23T10:17:51.142Z,8.60
2023-02-23T10:20:29.772Z,8.60
2023-02-23T10:23:05.705Z,8.60
2023-02-23T10:25:37.956Z,8.60
2023-02-23T10:28:06.528Z,8.60
2023-02-23T10:30:35.750Z,8.60
2023-02-23T10:33:14.483Z,8.60
2023-02-23T10:35:42.888Z,8.60
2023-02-23T10:38:17.181Z,8.60
2023-02-23T10:40:48.704Z,8.60
2023-02-23T10:43:17.009Z,8.70
2023-02-23T10:45:48.599Z,8.70
2023-02-23T10:48:20.797Z,8.70
2023-02-23T10:50:50.994Z,8.80
2023-02-23T10:53:26.656Z,8.80
2023-02-23T10:56:05.132Z,8.80
2023-02-23T10:58:40.795Z,8.80
2023-02-23T11:01:10.135Z,8.80
2023-02-23T11:03:42.982Z,8.80
2023-02-23T11:06:30.262Z,8.90
2023-02-23T11:09:01.478Z,8.80
2023-02-23T11:11:30.809Z,8.90
2023-02-23T11:13:59.344Z,8.90
2023-02-23T11:16:31.990Z,9.00
2023-02-23T11:19:02.134Z,9.00
2023-02-23T11:21:33.707Z,8.90
2023-02-23T11:24:15.168Z,9.00
2023-02-23T11:26:45.458Z,9.00
2023-02-23T11:29:23.426Z,9.00
2023-02-23T11:31:54.748Z,9.00
2023-02-23T11:34:32.203Z,9.00
2023-02-23T11:37:03.887Z,9.00
2023-02-23T11:39:33.929Z,9.00
2023-02-23T11:42:18.043Z,9.00
2023-02-23T11:44:52.499Z,9.00
2023-02-23T11:47:23.778Z,9.00
2023-02-23T11:49:52.858Z,9.10
2023-02-23T11:52:24.229Z,9.00
2023-02-23T11:54:58.174Z,9.00
2023-02-23T11:57:30.568Z,9.00
2023-02-23T12:00:00.378Z,9.00
2023-02-23T12:02:30.690Z,9.00
2023-02-23T12:05:08.238Z,9.10
2023-02-23T12:07:41.741Z,9.10
2023-02-23T12:10:20.251Z,9.10
2023-02-23T12:12:59.374Z,9.10
2023-02-23T12:15:37.902Z,9.10
2023-02-23T12:18:19.130Z,9.10
2023-02-23T12:20:51.043Z,9.10
2023-02-23T12:23:25.821Z,9.10
2023-02-23T12:25:59.818Z,9.20
2023-02-23T12:28:35.004Z,9.10
2023-02-23T12:31:08.120Z,9.10
2023-02-23T12:33:41.617Z,9.10
2023-02-23T12:36:22.021Z,9.10
2023-02-23T12:38:54.296Z,9.20
2023-02-23T12:41:37.949Z,9.20
2023-02-23T12:44:18.375Z,9.20
2023-02-23T12:46:51.375Z,9.20
2023-02-23T12:49:29.477Z,9.20
2023-02-23T12:52:06.805Z,9.20
2023-02-23T12:54:35.622Z,9.20
2023-02-23T12:57:15.195Z,9.20
2023-02-23T13:00:30.944Z,9.10
2023-02-23T13:03:33.282Z,9.10
2023-02-23T13:06:07.981Z,9.10
2023-02-23T13:08:55.677Z,9.10
2023-02-23T13:11:37.512Z,9.00
2023-02-23T13:14:20.640Z,8.90
2023-02-23T13:16:55.096Z,8.80
2023-02-23T13:19:28.181Z,8.80
2023-02-23T13:22:00.108Z,8.80
2023-02-23T13:24:36.181Z,8.80
2023-02-23T13:27:15.390Z,8.80
2023-02-23T13:29:48.136Z,8.80
2023-02-23T13:32:20.118Z,8.80
2023-02-23T13:34:53.523Z,8.80
2023-02-23T13:37:27.582Z,8.80
2023-02-23T13:40:03.239Z,8.80
2023-02-23T13:42:44.312Z,8.80
2023-02-23T13:45:33.382Z,8.80
2023-02-23T13:48:07.913Z,8.80
2023-02-23T13:50:46.649Z,8.70
2023-02-23T13:53:34.447Z,8.70
2023-02-23T13:56:06.842Z,8.70
2023-02-23T13:58:35.717Z,8.70
2023-02-23T14:01:15.986Z,8.70
2023-02-23T14:03:49.207Z,8.70
2023-02-23T14:06:19.609Z,8.70
2023-02-23T14:08:54.497Z,8.70
2023-02-23T14:11:48.719Z,8.70
2023-02-23T14:14:43.499Z,8.60
2023-02-23T14:17:51.878Z,8.60
2023-02-23T14:20:38.358Z,8.60
2023-02-23T14:23:29.711Z,8.50
2023-02-23T14:26:15.330Z,8.50
2023-02-23T14:28:45.778Z,8.50
2023-02-23T14:31:25.328Z,8.50
2023-02-23T14:34:00.344Z,8.50
2023-02-23T14:36:38.773Z,8.50
2023-02-23T14:39:11.292Z,8.50
2023-02-23T14:41:51.298Z,8.40
2023-02-23T14:44:31.342Z,8.50
2023-02-23T14:47:04.339Z,8.40
2023-02-23T14:49:39.145Z,8.40
2023-02-23T14:52:10.371Z,8.40
2023-02-23T14:54:41.160Z,8.40
2023-02-23T14:57:19.710Z,8.40
2023-02-23T14:59:54.261Z,8.40
2023-02-23T15:02:29.424Z,8.40
2023-02-23T15:04:59.512Z,8.30
2023-02-23T15:07:33.629Z,8.30
2023-02-23T15:10:05.699Z,8.30
2023-02-23T15:12:39.645Z,8.30
2023-02-23T15:15:18.280Z,8.20
2023-02-23T15:17:48.906Z,8.20
2023-02-23T15:20:23.651Z,8.20
2023-02-23T15:22:55.316Z,8.20
2023-02-23T15:25:26.321Z,8.20
2023-02-23T15:27:56.090Z,8.20
2023-02-23T15:30:30.894Z,8.10
2023-02-23T15:33:03.707Z,8.10
2023-02-23T15:35:38.489Z,8.10
2023-02-23T15:38:18.168Z,8.10
2023-02-23T15:40:58.863Z,8.10
2023-02-23T15:43:29.548Z,8.10
2023-02-23T15:46:04.424Z,8.00
2023-02-23T15:48:45.977Z,8.00
2023-02-23T15:51:31.950Z,8.00
2023-02-23T15:54:03.302Z,7.90
2023-02-23T15:56:35.530Z,7.90
2023-02-23T15:59:08.332Z,7.80
2023-02-23T16:01:44.173Z,7.80
2023-02-23T16:04:19.690Z,7.80
2023-02-23T16:06:54.618Z,7.80
2023-02-23T16:09:31.460Z,7.80
2023-02-23T16:12:04.119Z,7.70
2023-02-23T16:14:43.712Z,7.70
2023-02-23T16:17:22.500Z,7.70
2023-02-23T16:19:51.104Z,7.70
2023-02-23T16:22:26.285Z,7.70
2023-02-23T16:25:03.988Z,7.70
2023-02-23T16:27:33.301Z,7.70
2023-02-23T16:30:16.946Z,7.60
2023-02-23T16:32:46.293Z,7.60
2023-02-23T16:35:20.952Z,7.60
2023-02-23T16:38:02.083Z,7.60
2023-02-23T16:40:30.914Z,7.60
2023-02-23T16:43:00.769Z,7.60
2023-02-23T16:45:29.768Z,7.60
2023-02-23T16:48:02.506Z,7.60
2023-02-23T16:50:32.703Z,7.60
2023-02-23T16:53:03.691Z,7.50
2023-02-23T16:55:39.286Z,7.50
2023-02-23T16:58:19.317Z,7.50
2023-02-23T17:00:48.258Z,7.50
2023-02-23T17:03:21.547Z,7.50
2023-02-23T17:05:51.348Z,7.50
2023-02-23T17:08:21.955Z,7.50
2023-02-23T17:10:53.365Z,7.40
2023-02-23T17:13:24.336Z,7.40
2023-02-23T17:15:56.815Z,7.40
2023-02-23T17:18:27.282Z,7.40
2023-02-23T17:20:57.331Z,7.40
2023-02-23T17:23:38.536Z,7.40
2023-02-23T17:26:08.281Z,7.40
2023-02-23T17:28:37.229Z,7.30
2023-02-23T17:31:07.025Z,7.30
2023-02-23T17:33:37.114Z,7.30
2023-02-23T17:36:08.563Z,7.30
2023-02-23T17:38:38.833Z,7.30
2023-02-23T17:41:09.069Z,7.30
2023-02-23T17:43:38.581Z,7.30
2023-02-23T17:46:07.541Z,7.30
2023-02-23T17:48:36.333Z,7.20
2023-02-23T17:51:08.708Z,7.20
2023-02-23T17:53:39.072Z,7.20
2023-02-23T17:56:08.525Z,7.20
2023-02-23T17:58:37.170Z,7.20
2023-02-23T18:01:08.087Z,7.20
2023-02-23T18:04:11.329Z,7.20
2023-02-23T18:06:52.777Z,7.20
2023-02-23T18:09:23.731Z,7.20
2023-02-23T18:11:52.304Z,7.20
2023-02-23T18:14:20.936Z,7.20
2023-02-23T18:16:49.782Z,7.20
2023-02-23T18:19:18.049Z,7.20
2023-02-23T18:21:46.486Z,7.20
2023-02-23T18:24:15.006Z,7.20
2023-02-23T18:26:44.894Z,7.10
2023-02-23T18:29:13.254Z,7.20
2023-02-23T18:31:41.800Z,7.20
2023-02-23T18:34:11.889Z,7.10
2023-02-23T18:36:43.610Z,7.10
2023-02-23T18:39:13.551Z,7.10
2023-02-23T18:41:43.088Z,7.10
2023-02-23T18:44:16.051Z,7.10
2023-02-23T18:46:45.536Z,7.10
2023-02-23T18:49:19.232Z,7.10
2023-02-23T18:51:47.762Z,7.10
2023-02-23T18:54:18.534Z,7.10
2023-02-23T18:56:48.686Z,7.10
2023-02-23T18:59:18.657Z,7.10
2023-02-23T19:01:48.860Z,7.10
2023-02-23T19:04:17.293Z,7.10
2023-02-23T19:06:47.328Z,7.10
2023-02-23T19:09:19.683Z,7.10
2023-02-23T19:11:48.971Z,7.10
2023-02-23T19:14:23.883Z,7.10
2023-02-23T19:16:57.767Z,7.10
2023-02-23T19:19:26.891Z,7.10
2023-02-23T19:21:55.149Z,7.10
2023-02-23T19:24:23.818Z,7.10
2023-02-23T19:26:52.647Z,7.10
2023-02-23T19:29:22.436Z,7.10
2023-02-23T19:31:51.164Z,7.10
2023-02-23T19:34:19.615Z,7.10
2023-02-23T19:36:48.054Z,7.10
2023-02-23T19:39:16.842Z,7.10
2023-02-23T19:41:47.171Z,7.10
2023-02-23T19:44:15.488Z,7.10
2023-02-23T19:46:47.958Z,7.10
2023-02-23T19:49:17.471Z,7.10
2023-02-23T19:51:47.848Z,7.00
2023-02-23T19:54:16.330Z,6.90
2023-02-23T19:56:44.706Z,6.70
2023-02-23T19:59:14.123Z,6.60
2023-02-23T20:01:43.733Z,6.50
2023-02-23T20:04:14.145Z,6.30
2023-02-23T20:06:48.273Z,6.30
2023-02-23T20:09:16.909Z,6.20
2023-02-23T20:11:45.885Z,6.10
2023-02-23T20:14:15.646Z,6.10
2023-02-23T20:16:46.744Z,6.00
2023-02-23T20:19:18.138Z,5.90
2023-02-23T20:21:47.790Z,5.90
2023-02-23T20:24:17.708Z,5.90
2023-02-23T20:26:46.597Z,5.80
2023-02-23T20:29:19.189Z,5.80
2023-02-23T20:31:52.172Z,5.80
2023-02-23T20:34:24.757Z,5.80
2023-02-23T20:36:54.104Z,5.70
2023-02-23T20:39:24.411Z,5.70
2023-02-23T20:41:53.798Z,5.70
2023-02-23T20:44:26.097Z,5.60
2023-02-23T20:46:54.555Z,5.60
2023-02-23T20:49:25.826Z,5.60
2023-02-23T20:51:56.156Z,5.60
2023-02-23T20:54:25.247Z,5.60
2023-02-23T20:56:59.122Z,5.50
2023-02-23T20:59:32.374Z,5.60
2023-02-23T21:02:04.301Z,5.50
2023-02-23T21:04:38.581Z,5.50
2023-02-23T21:07:07.890Z,5.50
2023-02-23T21:09:40.537Z,5.50
2023-02-23T21:12:11.754Z,5.50
2023-02-23T21:14:42.303Z,5.50
2023-02-23T21:17:11.236Z,5.40
2023-02-23T21:19:41.303Z,5.40
2023-02-23T21:22:11.518Z,5.40
2023-02-23T21:24:41.548Z,5.40
2023-02-23T21:27:13.137Z,5.40
2023-02-23T21:29:45.089Z,5.40
2023-02-23T21:32:16.876Z,5.40
2023-02-23T21:34:47.594Z,5.40
2023-02-23T21:37:17.224Z,5.40
2023-02-23T21:39:46.991Z,5.40
2023-02-23T21:42:16.070Z,5.40
2023-02-23T21:44:45.786Z,5.40
2023-02-23T21:47:17.093Z,5.40
2023-02-23T21:49:49.490Z,5.40
2023-02-23T21:52:19.454Z,5.40
2023-02-23T21:54:50.373Z,5.40
2023-02-23T21:57:23.026Z,5.40
2023-02-23T21:59:51.867Z,5.40
2023-02-23T22:02:20.300Z,5.40
2023-02-23T22:04:52.435Z,5.30
2023-02-23T22:07:21.923Z,5.30
2023-02-23T22:09:50.257Z,5.30
2023-02-23T22:12:18.862Z,5.30
2023-02-23T22:14:50.369Z,5.30
2023-02-23T22:17:20.133Z,5.30
2023-02-23T22:19:51.624Z,5.20
2023-02-23T22:22:20.827Z,5.30
2023-02-23T22:24:49.638Z,5.30
2023-02-23T22:27:17.936Z,5.20
2023-02-23T22:29:46.492Z,5.20
2023-02-23T22:32:14.987Z,5.20
2023-02-23T22:34:43.518Z,5.20
2023-02-23T22:37:13.287Z,5.20
2023-02-23T22:39:42.025Z,5.20
2023-02-23T22:42:12.756Z,5.20
2023-02-23T22:44:41.413Z,5.20
2023-02-23T22:47:09.862Z,5.10
2023-02-23T22:49:38.812Z,5.10
2023-02-23T22:52:07.275Z,5.10
2023-02-23T22:54:37.345Z,5.00
2023-02-23T22:57:05.733Z,5.00
2023-02-23T22:59:34.161Z,4.90
2023-02-23T23:02:02.822Z,4.80
2023-02-23T23:04:34.420Z,4.80
2023-02-23T23:07:03.128Z,4.70
2023-02-23T23:09:31.443Z,4.60
2023-02-23T23:12:01.097Z,4.50
2023-02-23T23:14:32.708Z,4.50
2023-02-23T23:17:01.611Z,4.40
2023-02-23T23:19:30.101Z,4.30
2023-02-23T23:22:00.518Z,4.30
2023-02-23T23:24:28.869Z,4.20
2023-02-23T23:27:00.281Z,4.20
2023-02-23T23:29:30.903Z,4.20
2023-02-23T23:32:01.742Z,4.20
2023-02-23T23:34:33.683Z,4.10
2023-02-23T23:37:02.890Z,4.20
2023-02-23T23:39:31.437Z,4.10
2023-02-23T23:42:01.858Z,4.10
2023-02-23T23:44:33.888Z,4.10
2023-02-23T23:47:05.479Z,4.00
2023-02-23T23:49:39.225Z,4.00
2023-02-23T23:52:10.611Z,4.00
2023-02-23T23:54:41.294Z,4.00
2023-02-23T23:57:11.601Z,3.90
2023-02-23T23:59:46.231Z,3.90
